sensor_id;sensor_type;location;lat;lon;timestamp;P1;durP1;ratioP1;P2;durP2;ratioP2
53843;SDS011;39744;53.314;5.710;2023-03-14T00:02:08;21.65;;;4.00;;
53843;SDS011;39744;53.314;5.710;2023-03-14T00:04:34;22.80;;;4.72;;
53843;SDS011;39744;53.314;5.710;2023-03-14T00:07:00;24.98;;;4.03;;
53843;SDS011;39744;53.314;5.710;2023-03-14T00:09:26;19.33;;;3.80;;
53843;SDS011;39744;53.314;5.710;2023-03-14T00:11:54;26.60;;;5.70;;
53843;SDS011;39744;53.314;5.710;2023-03-14T00:14:20;20.77;;;4.22;;
53843;SDS011;39744;53.314;5.710;2023-03-14T00:16:46;16.27;;;3.30;;
53843;SDS011;39744;53.314;5.710;2023-03-14T00:19:13;18.88;;;3.85;;
53843;SDS011;39744;53.314;5.710;2023-03-14T00:21:39;22.30;;;4.47;;
53843;SDS011;39744;53.314;5.710;2023-03-14T00:24:05;22.67;;;4.07;;
53843;SDS011;39744;53.314;5.710;2023-03-14T00:26:31;24.90;;;4.30;;
53843;SDS011;39744;53.314;5.710;2023-03-14T00:28:57;21.42;;;3.65;;
53843;SDS011;39744;53.314;5.710;2023-03-14T00:31:23;18.13;;;3.67;;
53843;SDS011;39744;53.314;5.710;2023-03-14T00:33:50;23.23;;;3.03;;
53843;SDS011;39744;53.314;5.710;2023-03-14T00:36:17;19.90;;;4.40;;
53843;SDS011;39744;53.314;5.710;2023-03-14T00:38:45;24.40;;;4.18;;
53843;SDS011;39744;53.314;5.710;2023-03-14T00:41:16;19.02;;;4.10;;
53843;SDS011;39744;53.314;5.710;2023-03-14T00:43:43;21.30;;;3.80;;
53843;SDS011;39744;53.314;5.710;2023-03-14T00:46:09;22.83;;;4.20;;
53843;SDS011;39744;53.314;5.710;2023-03-14T00:48:36;18.10;;;3.22;;
53843;SDS011;39744;53.314;5.710;2023-03-14T00:51:02;22.55;;;4.20;;
53843;SDS011;39744;53.314;5.710;2023-03-14T00:53:29;16.38;;;3.30;;
53843;SDS011;39744;53.314;5.710;2023-03-14T00:55:55;20.38;;;3.70;;
53843;SDS011;39744;53.314;5.710;2023-03-14T00:58:21;18.70;;;3.97;;
53843;SDS011;39744;53.314;5.710;2023-03-14T01:00:47;25.73;;;3.58;;
53843;SDS011;39744;53.314;5.710;2023-03-14T01:03:13;24.90;;;3.85;;
53843;SDS011;39744;53.314;5.710;2023-03-14T01:05:40;14.65;;;3.88;;
53843;SDS011;39744;53.314;5.710;2023-03-14T01:08:06;22.23;;;3.70;;
53843;SDS011;39744;53.314;5.710;2023-03-14T01:10:32;26.10;;;4.00;;
53843;SDS011;39744;53.314;5.710;2023-03-14T01:12:58;18.88;;;3.50;;
53843;SDS011;39744;53.314;5.710;2023-03-14T01:15:24;18.23;;;3.25;;
53843;SDS011;39744;53.314;5.710;2023-03-14T01:17:50;25.15;;;4.30;;
53843;SDS011;39744;53.314;5.710;2023-03-14T01:20:16;22.83;;;3.80;;
53843;SDS011;39744;53.314;5.710;2023-03-14T01:22:43;19.77;;;4.00;;
53843;SDS011;39744;53.314;5.710;2023-03-14T01:25:11;21.13;;;4.45;;
53843;SDS011;39744;53.314;5.710;2023-03-14T01:27:37;21.60;;;3.90;;
53843;SDS011;39744;53.314;5.710;2023-03-14T01:30:03;27.60;;;3.88;;
53843;SDS011;39744;53.314;5.710;2023-03-14T01:32:30;24.48;;;4.78;;
53843;SDS011;39744;53.314;5.710;2023-03-14T01:34:56;23.35;;;4.57;;
53843;SDS011;39744;53.314;5.710;2023-03-14T01:37:22;24.95;;;4.90;;
53843;SDS011;39744;53.314;5.710;2023-03-14T01:39:48;35.90;;;5.25;;
53843;SDS011;39744;53.314;5.710;2023-03-14T01:42:14;20.88;;;4.30;;
53843;SDS011;39744;53.314;5.710;2023-03-14T01:44:57;29.60;;;4.70;;
53843;SDS011;39744;53.314;5.710;2023-03-14T01:47:23;22.97;;;4.20;;
53843;SDS011;39744;53.314;5.710;2023-03-14T01:49:53;20.58;;;4.45;;
53843;SDS011;39744;53.314;5.710;2023-03-14T01:52:27;26.87;;;4.60;;
53843;SDS011;39744;53.314;5.710;2023-03-14T01:55:02;28.67;;;5.28;;
53843;SDS011;39744;53.314;5.710;2023-03-14T01:57:37;24.27;;;4.75;;
53843;SDS011;39744;53.314;5.710;2023-03-14T02:00:05;25.83;;;4.80;;
53843;SDS011;39744;53.314;5.710;2023-03-14T02:02:40;26.77;;;5.28;;
53843;SDS011;39744;53.314;5.710;2023-03-14T02:05:08;29.35;;;5.40;;
53843;SDS011;39744;53.314;5.710;2023-03-14T02:07:40;30.42;;;6.05;;
53843;SDS011;39744;53.314;5.710;2023-03-14T02:10:08;27.48;;;5.22;;
53843;SDS011;39744;53.314;5.710;2023-03-14T02:12:35;27.40;;;4.90;;
53843;SDS011;39744;53.314;5.710;2023-03-14T02:15:02;29.42;;;5.10;;
53843;SDS011;39744;53.314;5.710;2023-03-14T02:17:28;25.45;;;4.55;;
53843;SDS011;39744;53.314;5.710;2023-03-14T02:22:33;24.45;;;4.45;;
53843;SDS011;39744;53.314;5.710;2023-03-14T02:25:08;29.80;;;5.25;;
53843;SDS011;39744;53.314;5.710;2023-03-14T02:27:34;26.15;;;5.15;;
53843;SDS011;39744;53.314;5.710;2023-03-14T02:30:10;33.58;;;5.05;;
53843;SDS011;39744;53.314;5.710;2023-03-14T02:32:38;28.92;;;4.18;;
53843;SDS011;39744;53.314;5.710;2023-03-14T02:35:09;34.67;;;4.85;;
53843;SDS011;39744;53.314;5.710;2023-03-14T02:37:59;27.35;;;4.70;;
53843;SDS011;39744;53.314;5.710;2023-03-14T02:40:22;34.78;;;5.70;;
53843;SDS011;39744;53.314;5.710;2023-03-14T02:42:48;32.97;;;4.95;;
53843;SDS011;39744;53.314;5.710;2023-03-14T02:47:46;29.65;;;5.00;;
53843;SDS011;39744;53.314;5.710;2023-03-14T02:52:40;38.78;;;4.80;;
53843;SDS011;39744;53.314;5.710;2023-03-14T02:55:06;32.65;;;4.60;;
53843;SDS011;39744;53.314;5.710;2023-03-14T02:57:32;37.55;;;5.50;;
53843;SDS011;39744;53.314;5.710;2023-03-14T02:59:58;32.78;;;4.85;;
53843;SDS011;39744;53.314;5.710;2023-03-14T03:02:25;36.10;;;5.10;;
53843;SDS011;39744;53.314;5.710;2023-03-14T03:04:51;34.17;;;5.03;;
53843;SDS011;39744;53.314;5.710;2023-03-14T03:07:17;38.45;;;5.50;;
53843;SDS011;39744;53.314;5.710;2023-03-14T03:09:44;32.55;;;5.47;;
53843;SDS011;39744;53.314;5.710;2023-03-14T03:12:10;34.42;;;5.50;;
53843;SDS011;39744;53.314;5.710;2023-03-14T03:14:36;37.13;;;5.40;;
53843;SDS011;39744;53.314;5.710;2023-03-14T03:17:02;37.45;;;5.43;;
53843;SDS011;39744;53.314;5.710;2023-03-14T03:19:28;38.95;;;5.80;;
53843;SDS011;39744;53.314;5.710;2023-03-14T03:21:54;33.83;;;6.15;;
53843;SDS011;39744;53.314;5.710;2023-03-14T03:24:21;40.17;;;6.95;;
53843;SDS011;39744;53.314;5.710;2023-03-14T03:26:47;31.23;;;5.55;;
53843;SDS011;39744;53.314;5.710;2023-03-14T03:29:12;44.75;;;6.38;;
53843;SDS011;39744;53.314;5.710;2023-03-14T03:31:39;35.50;;;5.60;;
53843;SDS011;39744;53.314;5.710;2023-03-14T03:34:05;33.30;;;7.07;;
53843;SDS011;39744;53.314;5.710;2023-03-14T03:36:31;38.97;;;6.13;;
53843;SDS011;39744;53.314;5.710;2023-03-14T03:38:57;42.42;;;5.75;;
53843;SDS011;39744;53.314;5.710;2023-03-14T03:41:23;41.10;;;6.15;;
53843;SDS011;39744;53.314;5.710;2023-03-14T03:43:49;52.92;;;6.43;;
53843;SDS011;39744;53.314;5.710;2023-03-14T03:46:15;42.90;;;6.22;;
53843;SDS011;39744;53.314;5.710;2023-03-14T03:48:41;34.15;;;5.68;;
53843;SDS011;39744;53.314;5.710;2023-03-14T03:51:11;43.28;;;6.38;;
53843;SDS011;39744;53.314;5.710;2023-03-14T03:53:37;30.83;;;5.97;;
53843;SDS011;39744;53.314;5.710;2023-03-14T03:56:03;35.53;;;6.03;;
53843;SDS011;39744;53.314;5.710;2023-03-14T03:58:30;29.60;;;6.20;;
53843;SDS011;39744;53.314;5.710;2023-03-14T04:00:56;38.45;;;5.55;;
53843;SDS011;39744;53.314;5.710;2023-03-14T04:03:22;38.38;;;6.15;;
53843;SDS011;39744;53.314;5.710;2023-03-14T04:06:00;32.83;;;6.57;;
53843;SDS011;39744;53.314;5.710;2023-03-14T04:08:27;39.03;;;6.22;;
53843;SDS011;39744;53.314;5.710;2023-03-14T04:10:54;34.05;;;5.78;;
53843;SDS011;39744;53.314;5.710;2023-03-14T04:13:20;36.80;;;5.85;;
53843;SDS011;39744;53.314;5.710;2023-03-14T04:15:46;39.42;;;5.82;;
53843;SDS011;39744;53.314;5.710;2023-03-14T04:18:12;33.72;;;5.38;;
53843;SDS011;39744;53.314;5.710;2023-03-14T04:20:38;37.25;;;5.43;;
53843;SDS011;39744;53.314;5.710;2023-03-14T04:23:04;34.40;;;4.97;;
53843;SDS011;39744;53.314;5.710;2023-03-14T04:25:30;28.60;;;6.03;;
53843;SDS011;39744;53.314;5.710;2023-03-14T04:27:56;24.45;;;4.40;;
53843;SDS011;39744;53.314;5.710;2023-03-14T04:30:22;31.77;;;4.90;;
53843;SDS011;39744;53.314;5.710;2023-03-14T04:32:48;29.83;;;4.72;;
53843;SDS011;39744;53.314;5.710;2023-03-14T04:35:14;24.85;;;4.32;;
53843;SDS011;39744;53.314;5.710;2023-03-14T04:37:40;28.00;;;4.53;;
53843;SDS011;39744;53.314;5.710;2023-03-14T04:40:08;27.88;;;4.47;;
53843;SDS011;39744;53.314;5.710;2023-03-14T04:42:34;23.17;;;3.47;;
53843;SDS011;39744;53.314;5.710;2023-03-14T04:45:00;23.23;;;3.67;;
53843;SDS011;39744;53.314;5.710;2023-03-14T04:47:27;26.75;;;4.22;;
53843;SDS011;39744;53.314;5.710;2023-03-14T04:49:53;23.67;;;3.75;;
53843;SDS011;39744;53.314;5.710;2023-03-14T04:52:19;19.25;;;3.25;;
53843;SDS011;39744;53.314;5.710;2023-03-14T04:54:45;19.42;;;3.58;;
53843;SDS011;39744;53.314;5.710;2023-03-14T04:57:11;20.52;;;3.50;;
53843;SDS011;39744;53.314;5.710;2023-03-14T04:59:37;15.32;;;3.45;;
53843;SDS011;39744;53.314;5.710;2023-03-14T05:02:03;20.08;;;2.97;;
53843;SDS011;39744;53.314;5.710;2023-03-14T05:04:29;16.15;;;2.92;;
53843;SDS011;39744;53.314;5.710;2023-03-14T05:06:57;19.63;;;3.20;;
53843;SDS011;39744;53.314;5.710;2023-03-14T05:09:23;15.55;;;3.28;;
53843;SDS011;39744;53.314;5.710;2023-03-14T05:11:49;19.70;;;3.97;;
53843;SDS011;39744;53.314;5.710;2023-03-14T05:14:15;12.35;;;3.00;;
53843;SDS011;39744;53.314;5.710;2023-03-14T05:16:41;19.10;;;3.28;;
53843;SDS011;39744;53.314;5.710;2023-03-14T05:19:08;22.35;;;3.42;;
53843;SDS011;39744;53.314;5.710;2023-03-14T05:21:34;38.97;;;3.80;;
53843;SDS011;39744;53.314;5.710;2023-03-14T05:24:00;17.80;;;2.28;;
53843;SDS011;39744;53.314;5.710;2023-03-14T05:26:26;16.92;;;2.70;;
53843;SDS011;39744;53.314;5.710;2023-03-14T05:28:52;14.98;;;2.00;;
53843;SDS011;39744;53.314;5.710;2023-03-14T05:31:18;15.30;;;2.75;;
53843;SDS011;39744;53.314;5.710;2023-03-14T05:33:44;14.43;;;2.60;;
53843;SDS011;39744;53.314;5.710;2023-03-14T05:36:10;13.20;;;2.00;;
53843;SDS011;39744;53.314;5.710;2023-03-14T05:38:36;19.13;;;3.08;;
53843;SDS011;39744;53.314;5.710;2023-03-14T05:41:02;21.10;;;3.33;;
53843;SDS011;39744;53.314;5.710;2023-03-14T05:43:28;19.45;;;3.53;;
53843;SDS011;39744;53.314;5.710;2023-03-14T05:45:54;21.83;;;3.97;;
53843;SDS011;39744;53.314;5.710;2023-03-14T05:48:20;30.02;;;4.15;;
53843;SDS011;39744;53.314;5.710;2023-03-14T05:50:47;18.83;;;3.85;;
53843;SDS011;39744;53.314;5.710;2023-03-14T05:53:13;21.58;;;2.50;;
53843;SDS011;39744;53.314;5.710;2023-03-14T05:55:39;19.88;;;2.95;;
53843;SDS011;39744;53.314;5.710;2023-03-14T05:58:05;17.58;;;2.63;;
53843;SDS011;39744;53.314;5.710;2023-03-14T06:00:31;20.33;;;3.40;;
53843;SDS011;39744;53.314;5.710;2023-03-14T06:02:57;15.02;;;2.60;;
53843;SDS011;39744;53.314;5.710;2023-03-14T06:05:23;17.63;;;2.40;;
53843;SDS011;39744;53.314;5.710;2023-03-14T06:07:49;10.15;;;2.03;;
53843;SDS011;39744;53.314;5.710;2023-03-14T06:10:15;14.05;;;2.47;;
53843;SDS011;39744;53.314;5.710;2023-03-14T06:12:42;15.63;;;1.98;;
53843;SDS011;39744;53.314;5.710;2023-03-14T06:15:08;14.93;;;2.20;;
53843;SDS011;39744;53.314;5.710;2023-03-14T06:17:34;11.23;;;1.50;;
53843;SDS011;39744;53.314;5.710;2023-03-14T06:20:00;14.02;;;1.98;;
53843;SDS011;39744;53.314;5.710;2023-03-14T06:22:26;13.35;;;1.42;;
53843;SDS011;39744;53.314;5.710;2023-03-14T06:24:52;6.32;;;1.58;;
53843;SDS011;39744;53.314;5.710;2023-03-14T06:27:18;6.47;;;1.38;;
53843;SDS011;39744;53.314;5.710;2023-03-14T06:29:44;7.93;;;1.40;;
53843;SDS011;39744;53.314;5.710;2023-03-14T06:32:10;10.60;;;1.92;;
53843;SDS011;39744;53.314;5.710;2023-03-14T06:34:36;10.85;;;1.38;;
53843;SDS011;39744;53.314;5.710;2023-03-14T06:37:03;10.60;;;2.75;;
53843;SDS011;39744;53.314;5.710;2023-03-14T06:39:29;9.13;;;2.08;;
53843;SDS011;39744;53.314;5.710;2023-03-14T06:41:56;6.05;;;1.50;;
53843;SDS011;39744;53.314;5.710;2023-03-14T06:44:22;10.60;;;1.65;;
53843;SDS011;39744;53.314;5.710;2023-03-14T06:46:48;13.35;;;1.80;;
53843;SDS011;39744;53.314;5.710;2023-03-14T06:49:14;7.97;;;1.52;;
53843;SDS011;39744;53.314;5.710;2023-03-14T06:51:40;9.57;;;1.90;;
53843;SDS011;39744;53.314;5.710;2023-03-14T06:54:06;8.90;;;1.80;;
53843;SDS011;39744;53.314;5.710;2023-03-14T06:56:32;14.27;;;2.08;;
53843;SDS011;39744;53.314;5.710;2023-03-14T06:58:58;11.98;;;1.55;;
53843;SDS011;39744;53.314;5.710;2023-03-14T07:01:26;14.90;;;2.30;;
53843;SDS011;39744;53.314;5.710;2023-03-14T07:03:52;12.43;;;1.80;;
53843;SDS011;39744;53.314;5.710;2023-03-14T07:06:18;13.05;;;1.90;;
53843;SDS011;39744;53.314;5.710;2023-03-14T07:08:45;10.90;;;2.25;;
53843;SDS011;39744;53.314;5.710;2023-03-14T07:11:11;12.52;;;1.75;;
53843;SDS011;39744;53.314;5.710;2023-03-14T07:13:40;17.05;;;2.35;;
53843;SDS011;39744;53.314;5.710;2023-03-14T07:16:06;16.13;;;2.40;;
53843;SDS011;39744;53.314;5.710;2023-03-14T07:18:32;8.05;;;1.83;;
53843;SDS011;39744;53.314;5.710;2023-03-14T07:20:59;16.92;;;2.72;;
53843;SDS011;39744;53.314;5.710;2023-03-14T07:23:25;15.80;;;2.40;;
53843;SDS011;39744;53.314;5.710;2023-03-14T07:25:51;20.58;;;2.60;;
53843;SDS011;39744;53.314;5.710;2023-03-14T07:28:18;17.23;;;2.67;;
53843;SDS011;39744;53.314;5.710;2023-03-14T07:30:46;18.45;;;2.65;;
53843;SDS011;39744;53.314;5.710;2023-03-14T07:33:12;16.13;;;2.97;;
53843;SDS011;39744;53.314;5.710;2023-03-14T07:35:38;23.63;;;3.10;;
53843;SDS011;39744;53.314;5.710;2023-03-14T07:38:04;11.48;;;3.03;;
53843;SDS011;39744;53.314;5.710;2023-03-14T07:40:31;17.23;;;3.00;;
53843;SDS011;39744;53.314;5.710;2023-03-14T07:42:57;20.83;;;3.28;;
53843;SDS011;39744;53.314;5.710;2023-03-14T07:45:23;17.00;;;4.57;;
53843;SDS011;39744;53.314;5.710;2023-03-14T07:47:49;19.20;;;3.17;;
53843;SDS011;39744;53.314;5.710;2023-03-14T07:50:15;18.73;;;3.22;;
53843;SDS011;39744;53.314;5.710;2023-03-14T07:52:41;19.88;;;3.40;;
53843;SDS011;39744;53.314;5.710;2023-03-14T07:55:07;20.30;;;4.03;;
53843;SDS011;39744;53.314;5.710;2023-03-14T07:57:33;17.45;;;3.10;;
53843;SDS011;39744;53.314;5.710;2023-03-14T07:59:59;25.98;;;4.15;;
53843;SDS011;39744;53.314;5.710;2023-03-14T08:02:26;27.58;;;4.00;;
53843;SDS011;39744;53.314;5.710;2023-03-14T08:04:51;21.70;;;3.28;;
53843;SDS011;39744;53.314;5.710;2023-03-14T08:07:17;25.15;;;4.13;;
53843;SDS011;39744;53.314;5.710;2023-03-14T08:09:44;28.70;;;4.20;;
53843;SDS011;39744;53.314;5.710;2023-03-14T08:12:10;26.38;;;4.68;;
53843;SDS011;39744;53.314;5.710;2023-03-14T08:14:36;28.52;;;4.35;;
53843;SDS011;39744;53.314;5.710;2023-03-14T08:17:02;27.40;;;4.22;;
53843;SDS011;39744;53.314;5.710;2023-03-14T08:19:28;19.33;;;3.20;;
53843;SDS011;39744;53.314;5.710;2023-03-14T08:21:54;33.88;;;4.57;;
53843;SDS011;39744;53.314;5.710;2023-03-14T08:24:20;27.27;;;4.28;;
53843;SDS011;39744;53.314;5.710;2023-03-14T08:26:46;27.40;;;4.03;;
53843;SDS011;39744;53.314;5.710;2023-03-14T08:29:12;25.85;;;4.22;;
53843;SDS011;39744;53.314;5.710;2023-03-14T08:31:38;22.52;;;4.00;;
53843;SDS011;39744;53.314;5.710;2023-03-14T08:34:04;24.48;;;5.05;;
53843;SDS011;39744;53.314;5.710;2023-03-14T08:36:31;25.83;;;4.20;;
53843;SDS011;39744;53.314;5.710;2023-03-14T08:38:58;16.63;;;3.38;;
53843;SDS011;39744;53.314;5.710;2023-03-14T08:41:24;17.95;;;3.60;;
53843;SDS011;39744;53.314;5.710;2023-03-14T08:43:50;24.45;;;3.72;;
53843;SDS011;39744;53.314;5.710;2023-03-14T08:46:16;17.73;;;3.05;;
53843;SDS011;39744;53.314;5.710;2023-03-14T08:48:42;26.95;;;3.80;;
53843;SDS011;39744;53.314;5.710;2023-03-14T08:51:11;22.55;;;3.83;;
53843;SDS011;39744;53.314;5.710;2023-03-14T08:53:37;18.45;;;3.35;;
53843;SDS011;39744;53.314;5.710;2023-03-14T08:56:03;21.70;;;2.90;;
53843;SDS011;39744;53.314;5.710;2023-03-14T08:58:31;28.23;;;3.90;;
53843;SDS011;39744;53.314;5.710;2023-03-14T09:00:57;22.55;;;4.38;;
53843;SDS011;39744;53.314;5.710;2023-03-14T09:03:24;25.40;;;4.95;;
53843;SDS011;39744;53.314;5.710;2023-03-14T09:05:50;27.42;;;4.68;;
53843;SDS011;39744;53.314;5.710;2023-03-14T09:08:16;25.30;;;4.05;;
53843;SDS011;39744;53.314;5.710;2023-03-14T09:10:42;29.15;;;4.57;;
53843;SDS011;39744;53.314;5.710;2023-03-14T09:13:08;20.00;;;3.55;;
53843;SDS011;39744;53.314;5.710;2023-03-14T09:15:34;18.30;;;3.85;;
53843;SDS011;39744;53.314;5.710;2023-03-14T09:18:00;22.35;;;3.78;;
53843;SDS011;39744;53.314;5.710;2023-03-14T09:20:26;22.08;;;4.00;;
53843;SDS011;39744;53.314;5.710;2023-03-14T09:22:53;30.25;;;4.20;;
53843;SDS011;39744;53.314;5.710;2023-03-14T09:25:19;18.60;;;3.47;;
53843;SDS011;39744;53.314;5.710;2023-03-14T09:27:45;17.85;;;3.50;;
53843;SDS011;39744;53.314;5.710;2023-03-14T09:30:11;23.85;;;4.00;;
53843;SDS011;39744;53.314;5.710;2023-03-14T09:32:37;22.25;;;4.00;;
53843;SDS011;39744;53.314;5.710;2023-03-14T09:35:03;20.73;;;3.80;;
53843;SDS011;39744;53.314;5.710;2023-03-14T09:37:29;19.73;;;3.45;;
53843;SDS011;39744;53.314;5.710;2023-03-14T09:39:55;17.98;;;3.72;;
53843;SDS011;39744;53.314;5.710;2023-03-14T09:42:22;23.48;;;3.33;;
53843;SDS011;39744;53.314;5.710;2023-03-14T09:45:01;14.00;;;3.00;;
53843;SDS011;39744;53.314;5.710;2023-03-14T09:47:30;16.40;;;3.08;;
53843;SDS011;39744;53.314;5.710;2023-03-14T09:49:56;16.20;;;3.13;;
53843;SDS011;39744;53.314;5.710;2023-03-14T09:52:42;18.83;;;2.70;;
53843;SDS011;39744;53.314;5.710;2023-03-14T09:55:11;19.73;;;3.83;;
53843;SDS011;39744;53.314;5.710;2023-03-14T09:57:38;14.00;;;2.95;;
53843;SDS011;39744;53.314;5.710;2023-03-14T10:00:06;13.80;;;2.30;;
53843;SDS011;39744;53.314;5.710;2023-03-14T10:02:39;14.68;;;2.60;;
53843;SDS011;39744;53.314;5.710;2023-03-14T10:05:16;21.25;;;3.47;;
53843;SDS011;39744;53.314;5.710;2023-03-14T10:07:42;13.85;;;2.30;;
53843;SDS011;39744;53.314;5.710;2023-03-14T10:10:13;13.57;;;2.45;;
53843;SDS011;39744;53.314;5.710;2023-03-14T10:12:40;14.65;;;2.47;;
53843;SDS011;39744;53.314;5.710;2023-03-14T10:15:11;11.75;;;2.83;;
53843;SDS011;39744;53.314;5.710;2023-03-14T10:17:43;16.50;;;2.92;;
53843;SDS011;39744;53.314;5.710;2023-03-14T10:20:26;14.60;;;2.78;;
53843;SDS011;39744;53.314;5.710;2023-03-14T10:22:58;12.27;;;2.88;;
53843;SDS011;39744;53.314;5.710;2023-03-14T10:25:41;16.02;;;2.90;;
53843;SDS011;39744;53.314;5.710;2023-03-14T10:28:23;15.65;;;2.40;;
53843;SDS011;39744;53.314;5.710;2023-03-14T10:30:58;9.30;;;1.75;;
53843;SDS011;39744;53.314;5.710;2023-03-14T10:33:33;10.15;;;1.90;;
53843;SDS011;39744;53.314;5.710;2023-03-14T10:38:43;14.30;;;2.42;;
53843;SDS011;39744;53.314;5.710;2023-03-14T10:41:17;11.25;;;2.22;;
53843;SDS011;39744;53.314;5.710;2023-03-14T10:43:43;9.52;;;2.10;;
53843;SDS011;39744;53.314;5.710;2023-03-14T10:46:14;9.85;;;2.10;;
53843;SDS011;39744;53.314;5.710;2023-03-14T10:48:46;7.68;;;1.60;;
53843;SDS011;39744;53.314;5.710;2023-03-14T10:54:36;8.32;;;1.50;;
53843;SDS011;39744;53.314;5.710;2023-03-14T10:56:37;8.10;;;2.00;;
53843;SDS011;39744;53.314;5.710;2023-03-14T10:59:07;7.45;;;1.70;;
53843;SDS011;39744;53.314;5.710;2023-03-14T11:07:03;11.07;;;2.33;;
53843;SDS011;39744;53.314;5.710;2023-03-14T11:09:37;13.65;;;2.30;;
53843;SDS011;39744;53.314;5.710;2023-03-14T11:12:14;10.63;;;2.17;;
53843;SDS011;39744;53.314;5.710;2023-03-14T11:14:46;11.55;;;1.83;;
53843;SDS011;39744;53.314;5.710;2023-03-14T11:20:08;11.05;;;2.30;;
53843;SDS011;39744;53.314;5.710;2023-03-14T11:22:50;16.52;;;2.17;;
53843;SDS011;39744;53.314;5.710;2023-03-14T11:30:51;15.25;;;2.33;;
53843;SDS011;39744;53.314;5.710;2023-03-14T11:33:18;16.92;;;4.28;;
53843;SDS011;39744;53.314;5.710;2023-03-14T11:35:48;15.27;;;2.42;;
53843;SDS011;39744;53.314;5.710;2023-03-14T11:40:47;14.07;;;1.87;;
53843;SDS011;39744;53.314;5.710;2023-03-14T11:43:15;12.93;;;2.42;;
53843;SDS011;39744;53.314;5.710;2023-03-14T11:45:43;11.30;;;2.00;;
53843;SDS011;39744;53.314;5.710;2023-03-14T11:51:23;11.27;;;2.15;;
53843;SDS011;39744;53.314;5.710;2023-03-14T11:53:57;11.27;;;2.15;;
53843;SDS011;39744;53.314;5.710;2023-03-14T11:59:01;10.85;;;2.45;;
53843;SDS011;39744;53.314;5.710;2023-03-14T12:01:45;8.85;;;1.70;;
53843;SDS011;39744;53.314;5.710;2023-03-14T12:04:30;6.03;;;1.50;;
53843;SDS011;39744;53.314;5.710;2023-03-14T12:06:57;11.02;;;3.08;;
53843;SDS011;39744;53.314;5.710;2023-03-14T12:09:26;7.50;;;1.52;;
53843;SDS011;39744;53.314;5.710;2023-03-14T12:11:53;13.52;;;2.10;;
53843;SDS011;39744;53.314;5.710;2023-03-14T12:14:26;9.43;;;2.33;;
53843;SDS011;39744;53.314;5.710;2023-03-14T12:16:54;12.85;;;2.08;;
53843;SDS011;39744;53.314;5.710;2023-03-14T12:21:49;9.20;;;2.03;;
53843;SDS011;39744;53.314;5.710;2023-03-14T12:24:22;7.43;;;1.75;;
53843;SDS011;39744;53.314;5.710;2023-03-14T12:26:52;15.90;;;2.72;;
53843;SDS011;39744;53.314;5.710;2023-03-14T12:29:18;11.27;;;2.03;;
53843;SDS011;39744;53.314;5.710;2023-03-14T12:31:48;12.43;;;2.13;;
53843;SDS011;39744;53.314;5.710;2023-03-14T12:39:34;4.55;;;1.58;;
53843;SDS011;39744;53.314;5.710;2023-03-14T12:44:42;11.70;;;2.50;;
53843;SDS011;39744;53.314;5.710;2023-03-14T12:47:51;12.23;;;2.20;;
53843;SDS011;39744;53.314;5.710;2023-03-14T12:49:57;12.32;;;1.70;;
53843;SDS011;39744;53.314;5.710;2023-03-14T12:55:01;11.00;;;2.17;;
53843;SDS011;39744;53.314;5.710;2023-03-14T12:57:45;6.70;;;1.65;;
53843;SDS011;39744;53.314;5.710;2023-03-14T13:00:50;9.20;;;2.00;;
53843;SDS011;39744;53.314;5.710;2023-03-14T13:05:54;10.20;;;1.70;;
53843;SDS011;39744;53.314;5.710;2023-03-14T13:08:36;10.68;;;1.95;;
53843;SDS011;39744;53.314;5.710;2023-03-14T13:11:10;9.35;;;2.10;;
53843;SDS011;39744;53.314;5.710;2023-03-14T13:13:47;12.73;;;2.17;;
53843;SDS011;39744;53.314;5.710;2023-03-14T13:16:17;10.48;;;2.45;;
53843;SDS011;39744;53.314;5.710;2023-03-14T13:21:48;11.63;;;2.35;;
53843;SDS011;39744;53.314;5.710;2023-03-14T13:24:20;9.55;;;2.17;;
53843;SDS011;39744;53.314;5.710;2023-03-14T13:26:47;11.50;;;2.13;;
53843;SDS011;39744;53.314;5.710;2023-03-14T13:31:39;13.02;;;1.95;;
53843;SDS011;39744;53.314;5.710;2023-03-14T13:34:09;9.20;;;1.95;;
53843;SDS011;39744;53.314;5.710;2023-03-14T13:36:36;9.85;;;1.67;;
53843;SDS011;39744;53.314;5.710;2023-03-14T13:39:02;6.68;;;1.75;;
53843;SDS011;39744;53.314;5.710;2023-03-14T13:41:29;14.55;;;1.83;;
53843;SDS011;39744;53.314;5.710;2023-03-14T13:43:59;9.55;;;1.90;;
53843;SDS011;39744;53.314;5.710;2023-03-14T13:46:26;9.95;;;2.17;;
53843;SDS011;39744;53.314;5.710;2023-03-14T13:48:54;12.30;;;1.80;;
53843;SDS011;39744;53.314;5.710;2023-03-14T13:51:21;10.30;;;2.38;;
53843;SDS011;39744;53.314;5.710;2023-03-14T13:53:54;8.80;;;1.70;;
53843;SDS011;39744;53.314;5.710;2023-03-14T13:58:46;13.95;;;2.03;;
53843;SDS011;39744;53.314;5.710;2023-03-14T14:01:14;9.93;;;1.77;;
53843;SDS011;39744;53.314;5.710;2023-03-14T14:03:41;8.52;;;1.80;;
53843;SDS011;39744;53.314;5.710;2023-03-14T14:06:10;15.40;;;1.83;;
53843;SDS011;39744;53.314;5.710;2023-03-14T14:08:42;11.05;;;2.85;;
53843;SDS011;39744;53.314;5.710;2023-03-14T14:11:09;9.63;;;2.35;;
53843;SDS011;39744;53.314;5.710;2023-03-14T14:13:39;11.05;;;3.13;;
53843;SDS011;39744;53.314;5.710;2023-03-14T14:16:05;11.38;;;1.83;;
53843;SDS011;39744;53.314;5.710;2023-03-14T14:18:31;9.57;;;2.35;;
53843;SDS011;39744;53.314;5.710;2023-03-14T14:20:58;15.70;;;2.20;;
53843;SDS011;39744;53.314;5.710;2023-03-14T14:23:25;18.67;;;2.53;;
53843;SDS011;39744;53.314;5.710;2023-03-14T14:25:53;11.07;;;2.15;;
53843;SDS011;39744;53.314;5.710;2023-03-14T14:30:46;14.30;;;2.50;;
53843;SDS011;39744;53.314;5.710;2023-03-14T14:33:19;10.50;;;2.05;;
53843;SDS011;39744;53.314;5.710;2023-03-14T14:35:50;10.18;;;2.55;;
53843;SDS011;39744;53.314;5.710;2023-03-14T14:38:16;15.50;;;2.13;;
53843;SDS011;39744;53.314;5.710;2023-03-14T14:40:45;12.95;;;2.40;;
53843;SDS011;39744;53.314;5.710;2023-03-14T14:43:14;11.25;;;2.28;;
53843;SDS011;39744;53.314;5.710;2023-03-14T14:45:42;8.43;;;2.05;;
53843;SDS011;39744;53.314;5.710;2023-03-14T14:48:09;10.27;;;2.20;;
53843;SDS011;39744;53.314;5.710;2023-03-14T14:50:44;11.40;;;2.17;;
53843;SDS011;39744;53.314;5.710;2023-03-14T14:55:49;9.33;;;1.90;;
53843;SDS011;39744;53.314;5.710;2023-03-14T15:00:56;16.03;;;2.23;;
53843;SDS011;39744;53.314;5.710;2023-03-14T15:03:22;10.68;;;1.95;;
53843;SDS011;39744;53.314;5.710;2023-03-14T15:05:52;12.73;;;1.90;;
53843;SDS011;39744;53.314;5.710;2023-03-14T15:08:20;7.53;;;1.67;;
53843;SDS011;39744;53.314;5.710;2023-03-14T15:10:46;8.90;;;2.28;;
53843;SDS011;39744;53.314;5.710;2023-03-14T15:13:12;18.90;;;2.50;;
53843;SDS011;39744;53.314;5.710;2023-03-14T15:15:38;17.50;;;2.28;;
53843;SDS011;39744;53.314;5.710;2023-03-14T15:18:12;9.30;;;2.03;;
53843;SDS011;39744;53.314;5.710;2023-03-14T15:20:39;14.52;;;2.58;;
53843;SDS011;39744;53.314;5.710;2023-03-14T15:23:12;12.52;;;2.78;;
53843;SDS011;39744;53.314;5.710;2023-03-14T15:25:38;16.00;;;2.38;;
53843;SDS011;39744;53.314;5.710;2023-03-14T15:28:14;8.13;;;2.35;;
53843;SDS011;39744;53.314;5.710;2023-03-14T15:30:41;10.05;;;1.80;;
53843;SDS011;39744;53.314;5.710;2023-03-14T15:33:07;12.93;;;2.20;;
53843;SDS011;39744;53.314;5.710;2023-03-14T15:35:34;11.55;;;2.50;;
53843;SDS011;39744;53.314;5.710;2023-03-14T15:38:00;11.00;;;2.10;;
53843;SDS011;39744;53.314;5.710;2023-03-14T15:40:26;12.95;;;2.22;;
53843;SDS011;39744;53.314;5.710;2023-03-14T15:42:52;15.98;;;1.88;;
53843;SDS011;39744;53.314;5.710;2023-03-14T15:45:18;7.03;;;1.73;;
53843;SDS011;39744;53.314;5.710;2023-03-14T15:47:44;9.68;;;1.58;;